sensor_id;sensor_type;location;lat;lon;timestamp;P1;durP1;ratioP1;P2;durP2;ratioP2
71484;SDS011;59300;52.074;4.758;2022-09-29T00:01:13;24.00;;;12.18;;
71484;SDS011;59300;52.074;4.758;2022-09-29T00:04:15;24.05;;;12.80;;
71484;SDS011;59300;52.074;4.758;2022-09-29T00:07:16;24.27;;;12.80;;
71484;SDS011;59300;52.074;4.758;2022-09-29T00:10:18;24.23;;;13.68;;
71484;SDS011;59300;52.074;4.758;2022-09-29T00:13:19;26.70;;;14.75;;
71484;SDS011;59300;52.074;4.758;2022-09-29T00:16:21;28.02;;;14.68;;
71484;SDS011;59300;52.074;4.758;2022-09-29T00:19:23;31.40;;;15.57;;
71484;SDS011;59300;52.074;4.758;2022-09-29T00:22:24;31.45;;;14.98;;
71484;SDS011;59300;52.074;4.758;2022-09-29T00:25:26;32.05;;;14.98;;
71484;SDS011;59300;52.074;4.758;2022-09-29T00:28:28;29.27;;;14.15;;
71484;SDS011;59300;52.074;4.758;2022-09-29T00:31:30;25.73;;;14.00;;
71484;SDS011;59300;52.074;4.758;2022-09-29T00:34:33;24.38;;;14.25;;
71484;SDS011;59300;52.074;4.758;2022-09-29T00:37:35;25.13;;;14.35;;
71484;SDS011;59300;52.074;4.758;2022-09-29T00:40:37;24.30;;;14.35;;
71484;SDS011;59300;52.074;4.758;2022-09-29T00:46:56;28.77;;;16.35;;
71484;SDS011;59300;52.074;4.758;2022-09-29T00:50:03;33.15;;;16.85;;
71484;SDS011;59300;52.074;4.758;2022-09-29T00:53:18;33.40;;;17.42;;
71484;SDS011;59300;52.074;4.758;2022-09-29T00:56:23;35.33;;;18.77;;
71484;SDS011;59300;52.074;4.758;2022-09-29T00:59:26;36.33;;;18.63;;
71484;SDS011;59300;52.074;4.758;2022-09-29T01:02:35;41.75;;;19.10;;
71484;SDS011;59300;52.074;4.758;2022-09-29T01:05:46;40.33;;;19.40;;
71484;SDS011;59300;52.074;4.758;2022-09-29T01:12:05;47.10;;;20.48;;
71484;SDS011;59300;52.074;4.758;2022-09-29T01:15:07;46.47;;;20.63;;
71484;SDS011;59300;52.074;4.758;2022-09-29T01:18:09;50.80;;;22.15;;
71484;SDS011;59300;52.074;4.758;2022-09-29T01:27:55;48.75;;;22.48;;
71484;SDS011;59300;52.074;4.758;2022-09-29T01:34:52;49.55;;;22.20;;
71484;SDS011;59300;52.074;4.758;2022-09-29T01:41:43;60.70;;;24.08;;
71484;SDS011;59300;52.074;4.758;2022-09-29T01:44:48;58.70;;;23.15;;
71484;SDS011;59300;52.074;4.758;2022-09-29T01:47:57;52.55;;;22.30;;
71484;SDS011;59300;52.074;4.758;2022-09-29T01:51:06;56.53;;;24.23;;
71484;SDS011;59300;52.074;4.758;2022-09-29T01:54:13;53.78;;;24.65;;
71484;SDS011;59300;52.074;4.758;2022-09-29T02:00:34;49.83;;;21.05;;
71484;SDS011;59300;52.074;4.758;2022-09-29T02:03:46;46.63;;;22.45;;
71484;SDS011;59300;52.074;4.758;2022-09-29T02:06:53;49.67;;;22.70;;
71484;SDS011;59300;52.074;4.758;2022-09-29T02:10:06;54.40;;;23.08;;
71484;SDS011;59300;52.074;4.758;2022-09-29T02:13:12;55.47;;;23.10;;
71484;SDS011;59300;52.074;4.758;2022-09-29T02:16:16;57.78;;;23.88;;
71484;SDS011;59300;52.074;4.758;2022-09-29T02:19:21;56.90;;;24.75;;
71484;SDS011;59300;52.074;4.758;2022-09-29T02:22:26;60.90;;;26.90;;
71484;SDS011;59300;52.074;4.758;2022-09-29T02:25:28;63.13;;;26.95;;
71484;SDS011;59300;52.074;4.758;2022-09-29T02:28:29;67.22;;;27.73;;
71484;SDS011;59300;52.074;4.758;2022-09-29T02:31:31;79.70;;;27.23;;
71484;SDS011;59300;52.074;4.758;2022-09-29T02:34:35;61.50;;;26.40;;
71484;SDS011;59300;52.074;4.758;2022-09-29T02:40:48;60.13;;;26.30;;
71484;SDS011;59300;52.074;4.758;2022-09-29T02:47:06;58.25;;;24.40;;
71484;SDS011;59300;52.074;4.758;2022-09-29T03:00:20;50.38;;;22.75;;
71484;SDS011;59300;52.074;4.758;2022-09-29T03:03:22;53.22;;;23.70;;
71484;SDS011;59300;52.074;4.758;2022-09-29T03:06:24;65.82;;;25.50;;
71484;SDS011;59300;52.074;4.758;2022-09-29T03:09:26;58.95;;;25.65;;
71484;SDS011;59300;52.074;4.758;2022-09-29T03:12:27;64.78;;;26.38;;
71484;SDS011;59300;52.074;4.758;2022-09-29T03:15:29;61.40;;;26.73;;
71484;SDS011;59300;52.074;4.758;2022-09-29T03:18:31;67.80;;;27.05;;
71484;SDS011;59300;52.074;4.758;2022-09-29T03:21:32;58.30;;;27.00;;
71484;SDS011;59300;52.074;4.758;2022-09-29T03:24:34;70.53;;;28.98;;
71484;SDS011;59300;52.074;4.758;2022-09-29T03:27:35;70.88;;;28.17;;
71484;SDS011;59300;52.074;4.758;2022-09-29T03:30:36;70.55;;;28.00;;
71484;SDS011;59300;52.074;4.758;2022-09-29T03:33:38;70.35;;;29.15;;
71484;SDS011;59300;52.074;4.758;2022-09-29T03:36:40;71.85;;;28.63;;
71484;SDS011;59300;52.074;4.758;2022-09-29T03:39:41;83.57;;;31.40;;
71484;SDS011;59300;52.074;4.758;2022-09-29T03:42:44;77.60;;;30.10;;
71484;SDS011;59300;52.074;4.758;2022-09-29T03:45:49;84.10;;;30.98;;
71484;SDS011;59300;52.074;4.758;2022-09-29T03:48:53;71.10;;;28.52;;
71484;SDS011;59300;52.074;4.758;2022-09-29T03:51:55;72.97;;;28.45;;
71484;SDS011;59300;52.074;4.758;2022-09-29T03:54:56;71.63;;;26.70;;
71484;SDS011;59300;52.074;4.758;2022-09-29T03:57:57;77.75;;;28.92;;
71484;SDS011;59300;52.074;4.758;2022-09-29T04:00:59;71.78;;;28.15;;
71484;SDS011;59300;52.074;4.758;2022-09-29T04:04:00;72.43;;;27.10;;
71484;SDS011;59300;52.074;4.758;2022-09-29T04:07:02;82.00;;;28.85;;
71484;SDS011;59300;52.074;4.758;2022-09-29T04:10:04;95.32;;;31.85;;
71484;SDS011;59300;52.074;4.758;2022-09-29T04:13:05;86.30;;;31.27;;
71484;SDS011;59300;52.074;4.758;2022-09-29T04:16:07;87.90;;;29.27;;
71484;SDS011;59300;52.074;4.758;2022-09-29T04:19:09;81.10;;;28.08;;
71484;SDS011;59300;52.074;4.758;2022-09-29T04:22:10;70.00;;;27.50;;
71484;SDS011;59300;52.074;4.758;2022-09-29T04:25:12;73.28;;;27.60;;
71484;SDS011;59300;52.074;4.758;2022-09-29T04:28:13;73.88;;;25.67;;
71484;SDS011;59300;52.074;4.758;2022-09-29T04:31:15;64.88;;;24.15;;
71484;SDS011;59300;52.074;4.758;2022-09-29T04:34:16;59.67;;;23.30;;
71484;SDS011;59300;52.074;4.758;2022-09-29T04:37:19;79.78;;;24.73;;
71484;SDS011;59300;52.074;4.758;2022-09-29T04:40:20;54.95;;;22.15;;
71484;SDS011;59300;52.074;4.758;2022-09-29T04:43:22;81.05;;;23.73;;
71484;SDS011;59300;52.074;4.758;2022-09-29T04:46:24;62.15;;;21.73;;
71484;SDS011;59300;52.074;4.758;2022-09-29T04:49:25;64.55;;;21.13;;
71484;SDS011;59300;52.074;4.758;2022-09-29T04:52:27;48.70;;;21.05;;
71484;SDS011;59300;52.074;4.758;2022-09-29T04:55:28;61.70;;;20.20;;
71484;SDS011;59300;52.074;4.758;2022-09-29T04:58:29;44.30;;;18.73;;
71484;SDS011;59300;52.074;4.758;2022-09-29T05:01:31;37.42;;;19.05;;
71484;SDS011;59300;52.074;4.758;2022-09-29T05:04:32;41.63;;;19.83;;
71484;SDS011;59300;52.074;4.758;2022-09-29T05:07:34;51.15;;;20.77;;
71484;SDS011;59300;52.074;4.758;2022-09-29T05:10:36;43.85;;;20.08;;
71484;SDS011;59300;52.074;4.758;2022-09-29T05:13:37;40.78;;;18.60;;
71484;SDS011;59300;52.074;4.758;2022-09-29T05:16:39;41.20;;;17.70;;
71484;SDS011;59300;52.074;4.758;2022-09-29T05:19:40;37.53;;;17.70;;
71484;SDS011;59300;52.074;4.758;2022-09-29T05:22:42;41.88;;;18.42;;
71484;SDS011;59300;52.074;4.758;2022-09-29T05:25:43;43.70;;;18.95;;
71484;SDS011;59300;52.074;4.758;2022-09-29T05:28:46;53.20;;;21.63;;
71484;SDS011;59300;52.074;4.758;2022-09-29T05:31:48;54.83;;;22.65;;
71484;SDS011;59300;52.074;4.758;2022-09-29T05:34:50;66.05;;;23.70;;
71484;SDS011;59300;52.074;4.758;2022-09-29T05:37:52;67.93;;;26.15;;
71484;SDS011;59300;52.074;4.758;2022-09-29T05:40:53;62.13;;;24.45;;
71484;SDS011;59300;52.074;4.758;2022-09-29T05:43:56;63.58;;;25.60;;
71484;SDS011;59300;52.074;4.758;2022-09-29T05:46:57;88.15;;;26.75;;
71484;SDS011;59300;52.074;4.758;2022-09-29T05:49:58;69.55;;;26.73;;
71484;SDS011;59300;52.074;4.758;2022-09-29T05:53:03;70.32;;;26.45;;
71484;SDS011;59300;52.074;4.758;2022-09-29T05:56:05;76.80;;;26.67;;
71484;SDS011;59300;52.074;4.758;2022-09-29T05:59:08;89.38;;;30.00;;
71484;SDS011;59300;52.074;4.758;2022-09-29T06:02:10;130.82;;;32.78;;
71484;SDS011;59300;52.074;4.758;2022-09-29T06:05:12;118.40;;;33.10;;
71484;SDS011;59300;52.074;4.758;2022-09-29T06:08:13;177.10;;;45.10;;
71484;SDS011;59300;52.074;4.758;2022-09-29T06:11:22;166.23;;;48.65;;
71484;SDS011;59300;52.074;4.758;2022-09-29T06:14:28;140.68;;;40.83;;
71484;SDS011;59300;52.074;4.758;2022-09-29T06:17:29;126.00;;;36.35;;
71484;SDS011;59300;52.074;4.758;2022-09-29T06:20:31;104.28;;;34.00;;
71484;SDS011;59300;52.074;4.758;2022-09-29T06:23:32;99.85;;;32.50;;
71484;SDS011;59300;52.074;4.758;2022-09-29T06:26:34;109.53;;;30.85;;
71484;SDS011;59300;52.074;4.758;2022-09-29T06:29:36;76.15;;;30.00;;
71484;SDS011;59300;52.074;4.758;2022-09-29T06:32:37;110.82;;;31.30;;
71484;SDS011;59300;52.074;4.758;2022-09-29T06:35:44;72.15;;;29.52;;
71484;SDS011;59300;52.074;4.758;2022-09-29T06:38:47;82.10;;;31.50;;
71484;SDS011;59300;52.074;4.758;2022-09-29T06:41:48;77.15;;;30.20;;
71484;SDS011;59300;52.074;4.758;2022-09-29T06:44:50;76.25;;;30.92;;
71484;SDS011;59300;52.074;4.758;2022-09-29T06:47:56;70.07;;;31.67;;
71484;SDS011;59300;52.074;4.758;2022-09-29T06:50:58;84.80;;;33.50;;
71484;SDS011;59300;52.074;4.758;2022-09-29T06:54:14;80.63;;;32.97;;
71484;SDS011;59300;52.074;4.758;2022-09-29T06:57:20;80.43;;;32.90;;
71484;SDS011;59300;52.074;4.758;2022-09-29T07:00:21;86.47;;;31.38;;
71484;SDS011;59300;52.074;4.758;2022-09-29T07:03:23;63.97;;;27.85;;
71484;SDS011;59300;52.074;4.758;2022-09-29T07:06:24;68.07;;;24.75;;
71484;SDS011;59300;52.074;4.758;2022-09-29T07:09:26;43.50;;;20.13;;
71484;SDS011;59300;52.074;4.758;2022-09-29T07:12:28;25.75;;;16.13;;
71484;SDS011;59300;52.074;4.758;2022-09-29T07:15:29;17.02;;;11.75;;
71484;SDS011;59300;52.074;4.758;2022-09-29T07:18:31;14.13;;;10.02;;
71484;SDS011;59300;52.074;4.758;2022-09-29T07:21:33;11.32;;;8.88;;
71484;SDS011;59300;52.074;4.758;2022-09-29T07:24:34;10.77;;;9.00;;
71484;SDS011;59300;52.074;4.758;2022-09-29T07:27:36;12.63;;;8.80;;
71484;SDS011;59300;52.074;4.758;2022-09-29T07:30:38;33.15;;;10.32;;
71484;SDS011;59300;52.074;4.758;2022-09-29T07:33:44;13.77;;;10.83;;
71484;SDS011;59300;52.074;4.758;2022-09-29T07:36:48;14.98;;;11.10;;
71484;SDS011;59300;52.074;4.758;2022-09-29T07:39:50;15.75;;;11.80;;
71484;SDS011;59300;52.074;4.758;2022-09-29T07:42:52;15.23;;;10.75;;
71484;SDS011;59300;52.074;4.758;2022-09-29T07:45:54;11.00;;;9.27;;
71484;SDS011;59300;52.074;4.758;2022-09-29T07:48:55;11.18;;;7.78;;
71484;SDS011;59300;52.074;4.758;2022-09-29T07:51:57;9.38;;;7.55;;
71484;SDS011;59300;52.074;4.758;2022-09-29T07:54:58;8.38;;;7.55;;
71484;SDS011;59300;52.074;4.758;2022-09-29T07:58:00;9.05;;;7.50;;
71484;SDS011;59300;52.074;4.758;2022-09-29T08:01:02;8.68;;;7.68;;
71484;SDS011;59300;52.074;4.758;2022-09-29T08:04:04;8.10;;;7.33;;
71484;SDS011;59300;52.074;4.758;2022-09-29T08:07:06;8.13;;;6.95;;
71484;SDS011;59300;52.074;4.758;2022-09-29T08:10:07;9.13;;;7.45;;
71484;SDS011;59300;52.074;4.758;2022-09-29T08:13:18;7.45;;;6.70;;
71484;SDS011;59300;52.074;4.758;2022-09-29T08:16:19;7.43;;;6.70;;
71484;SDS011;59300;52.074;4.758;2022-09-29T08:19:21;8.00;;;6.95;;
71484;SDS011;59300;52.074;4.758;2022-09-29T08:22:23;7.68;;;6.88;;
71484;SDS011;59300;52.074;4.758;2022-09-29T08:25:24;9.18;;;6.80;;
71484;SDS011;59300;52.074;4.758;2022-09-29T08:28:26;9.93;;;6.90;;
71484;SDS011;59300;52.074;4.758;2022-09-29T08:31:32;8.70;;;6.80;;
71484;SDS011;59300;52.074;4.758;2022-09-29T08:34:33;7.93;;;7.10;;
71484;SDS011;59300;52.074;4.758;2022-09-29T08:37:35;9.10;;;8.00;;
71484;SDS011;59300;52.074;4.758;2022-09-29T08:40:36;14.52;;;9.18;;
71484;SDS011;59300;52.074;4.758;2022-09-29T08:43:39;10.65;;;9.43;;
71484;SDS011;59300;52.074;4.758;2022-09-29T08:46:45;11.90;;;10.55;;
71484;SDS011;59300;52.074;4.758;2022-09-29T08:50:00;15.73;;;10.90;;
71484;SDS011;59300;52.074;4.758;2022-09-29T08:53:06;13.18;;;11.35;;
71484;SDS011;59300;52.074;4.758;2022-09-29T08:56:27;15.75;;;11.77;;
71484;SDS011;59300;52.074;4.758;2022-09-29T08:59:29;14.60;;;13.02;;
71484;SDS011;59300;52.074;4.758;2022-09-29T09:09:20;16.75;;;13.52;;
71484;SDS011;59300;52.074;4.758;2022-09-29T09:15:49;16.42;;;13.93;;
71484;SDS011;59300;52.074;4.758;2022-09-29T09:22:13;17.85;;;14.27;;
71484;SDS011;59300;52.074;4.758;2022-09-29T09:25:35;20.83;;;13.40;;
71484;SDS011;59300;52.074;4.758;2022-09-29T09:28:57;16.20;;;13.05;;
71484;SDS011;59300;52.074;4.758;2022-09-29T09:38:35;9.02;;;7.72;;
71484;SDS011;59300;52.074;4.758;2022-09-29T09:41:46;10.38;;;7.05;;
71484;SDS011;59300;52.074;4.758;2022-09-29T09:44:52;10.30;;;6.65;;
71484;SDS011;59300;52.074;4.758;2022-09-29T09:48:02;9.13;;;6.80;;
71484;SDS011;59300;52.074;4.758;2022-09-29T09:54:40;6.60;;;5.50;;
71484;SDS011;59300;52.074;4.758;2022-09-29T10:01:24;6.25;;;5.55;;
71484;SDS011;59300;52.074;4.758;2022-09-29T10:04:27;7.38;;;5.07;;
71484;SDS011;59300;52.074;4.758;2022-09-29T10:07:28;5.53;;;4.85;;
71484;SDS011;59300;52.074;4.758;2022-09-29T10:10:30;6.25;;;5.60;;
71484;SDS011;59300;52.074;4.758;2022-09-29T10:13:32;6.25;;;5.40;;
71484;SDS011;59300;52.074;4.758;2022-09-29T10:16:39;6.95;;;5.00;;
71484;SDS011;59300;52.074;4.758;2022-09-29T10:23:46;6.13;;;3.90;;
71484;SDS011;59300;52.074;4.758;2022-09-29T10:26:38;4.35;;;3.65;;
71484;SDS011;59300;52.074;4.758;2022-09-29T10:29:46;5.13;;;4.40;;
71484;SDS011;59300;52.074;4.758;2022-09-29T10:32:52;6.65;;;4.30;;
71484;SDS011;59300;52.074;4.758;2022-09-29T10:36:05;4.57;;;3.92;;
71484;SDS011;59300;52.074;4.758;2022-09-29T10:39:09;4.07;;;3.08;;
71484;SDS011;59300;52.074;4.758;2022-09-29T10:42:49;6.88;;;4.43;;
71484;SDS011;59300;52.074;4.758;2022-09-29T10:45:51;5.38;;;4.20;;
71484;SDS011;59300;52.074;4.758;2022-09-29T10:49:12;6.85;;;4.43;;
71484;SDS011;59300;52.074;4.758;2022-09-29T10:55:26;5.00;;;3.50;;
71484;SDS011;59300;52.074;4.758;2022-09-29T10:58:31;4.47;;;3.45;;
71484;SDS011;59300;52.074;4.758;2022-09-29T11:01:57;5.60;;;3.58;;
71484;SDS011;59300;52.074;4.758;2022-09-29T11:05:02;5.05;;;3.90;;
71484;SDS011;59300;52.074;4.758;2022-09-29T11:08:17;3.72;;;2.70;;
71484;SDS011;59300;52.074;4.758;2022-09-29T11:17:36;3.70;;;3.20;;
71484;SDS011;59300;52.074;4.758;2022-09-29T11:20:38;3.95;;;3.00;;
71484;SDS011;59300;52.074;4.758;2022-09-29T11:23:45;4.20;;;3.00;;
71484;SDS011;59300;52.074;4.758;2022-09-29T11:26:57;4.00;;;3.20;;
71484;SDS011;59300;52.074;4.758;2022-09-29T11:37:38;3.13;;;2.85;;
71484;SDS011;59300;52.074;4.758;2022-09-29T11:40:53;3.60;;;2.45;;
71484;SDS011;59300;52.074;4.758;2022-09-29T11:47:54;3.13;;;2.22;;
71484;SDS011;59300;52.074;4.758;2022-09-29T11:51:32;2.83;;;2.60;;
71484;SDS011;59300;52.074;4.758;2022-09-29T11:54:37;2.78;;;2.50;;
71484;SDS011;59300;52.074;4.758;2022-09-29T11:57:44;4.10;;;3.15;;
71484;SDS011;59300;52.074;4.758;2022-09-29T12:04:37;5.70;;;3.15;;
71484;SDS011;59300;52.074;4.758;2022-09-29T12:11:10;3.10;;;2.80;;
71484;SDS011;59300;52.074;4.758;2022-09-29T12:18:27;5.22;;;2.70;;
71484;SDS011;59300;52.074;4.758;2022-09-29T12:21:40;2.95;;;2.40;;
71484;SDS011;59300;52.074;4.758;2022-09-29T12:24:46;2.65;;;1.88;;
71484;SDS011;59300;52.074;4.758;2022-09-29T12:27:52;2.63;;;1.60;;
71484;SDS011;59300;52.074;4.758;2022-09-29T12:30:59;5.18;;;1.60;;
71484;SDS011;59300;52.074;4.758;2022-09-29T12:34:09;2.47;;;2.05;;
71484;SDS011;59300;52.074;4.758;2022-09-29T12:40:37;1.80;;;1.40;;
71484;SDS011;59300;52.074;4.758;2022-09-29T12:46:58;2.60;;;1.40;;
71484;SDS011;59300;52.074;4.758;2022-09-29T12:50:05;2.35;;;1.75;;
71484;SDS011;59300;52.074;4.758;2022-09-29T12:53:16;1.60;;;1.50;;
71484;SDS011;59300;52.074;4.758;2022-09-29T12:56:23;2.47;;;1.48;;
71484;SDS011;59300;52.074;4.758;2022-09-29T12:59:43;2.45;;;1.30;;
71484;SDS011;59300;52.074;4.758;2022-09-29T13:03:13;2.28;;;1.40;;
71484;SDS011;59300;52.074;4.758;2022-09-29T13:23:03;1.70;;;1.60;;
71484;SDS011;59300;52.074;4.758;2022-09-29T13:29:51;2.45;;;1.95;;
71484;SDS011;59300;52.074;4.758;2022-09-29T13:33:12;3.65;;;2.10;;
71484;SDS011;59300;52.074;4.758;2022-09-29T13:36:23;3.75;;;1.90;;
71484;SDS011;59300;52.074;4.758;2022-09-29T13:39:27;3.63;;;2.00;;
71484;SDS011;59300;52.074;4.758;2022-09-29T13:42:39;5.28;;;2.70;;
71484;SDS011;59300;52.074;4.758;2022-09-29T13:45:45;4.95;;;2.22;;
71484;SDS011;59300;52.074;4.758;2022-09-29T13:48:51;2.40;;;2.20;;
71484;SDS011;59300;52.074;4.758;2022-09-29T13:55:47;2.85;;;2.20;;
71484;SDS011;59300;52.074;4.758;2022-09-29T14:01:51;2.30;;;1.80;;
71484;SDS011;59300;52.074;4.758;2022-09-29T14:04:54;1.98;;;1.88;;
71484;SDS011;59300;52.074;4.758;2022-09-29T14:11:02;2.70;;;1.60;;
71484;SDS011;59300;52.074;4.758;2022-09-29T14:17:37;1.52;;;1.42;;
71484;SDS011;59300;52.074;4.758;2022-09-29T14:20:57;1.70;;;1.48;;
71484;SDS011;59300;52.074;4.758;2022-09-29T14:24:03;1.73;;;1.58;;
71484;SDS011;59300;52.074;4.758;2022-09-29T14:27:22;1.95;;;1.30;;
71484;SDS011;59300;52.074;4.758;2022-09-29T14:33:36;3.50;;;1.45;;
71484;SDS011;59300;52.074;4.758;2022-09-29T14:36:41;1.30;;;1.20;;
71484;SDS011;59300;52.074;4.758;2022-09-29T14:39:42;2.17;;;1.60;;
71484;SDS011;59300;52.074;4.758;2022-09-29T14:42:44;1.52;;;1.42;;
71484;SDS011;59300;52.074;4.758;2022-09-29T14:45:59;1.90;;;1.50;;
71484;SDS011;59300;52.074;4.758;2022-09-29T14:52:50;1.67;;;1.58;;
71484;SDS011;59300;52.074;4.758;2022-09-29T14:56:25;2.55;;;1.75;;
71484;SDS011;59300;52.074;4.758;2022-09-29T15:03:00;2.83;;;1.80;;
71484;SDS011;59300;52.074;4.758;2022-09-29T15:06:26;2.97;;;1.70;;
71484;SDS011;59300;52.074;4.758;2022-09-29T15:09:33;2.33;;;1.85;;
71484;SDS011;59300;52.074;4.758;2022-09-29T15:12:36;2.50;;;1.75;;
71484;SDS011;59300;52.074;4.758;2022-09-29T15:15:38;3.05;;;1.80;;
71484;SDS011;59300;52.074;4.758;2022-09-29T15:21:54;1.65;;;1.55;;
71484;SDS011;59300;52.074;4.758;2022-09-29T15:28:14;2.95;;;1.90;;
71484;SDS011;59300;52.074;4.758;2022-09-29T15:31:24;2.47;;;1.95;;
71484;SDS011;59300;52.074;4.758;2022-09-29T15:34:28;1.40;;;1.30;;
71484;SDS011;59300;52.074;4.758;2022-09-29T15:40:52;0.82;;;0.73;;
71484;SDS011;59300;52.074;4.758;2022-09-29T15:43:56;2.22;;;1.10;;
71484;SDS011;59300;52.074;4.758;2022-09-29T15:46:58;1.80;;;1.20;;
71484;SDS011;59300;52.074;4.758;2022-09-29T15:50:02;1.63;;;1.52;;
71484;SDS011;59300;52.074;4.758;2022-09-29T15:53:16;1.50;;;1.40;;
71484;SDS011;59300;52.074;4.758;2022-09-29T15:56:18;2.05;;;1.40;;
71484;SDS011;59300;52.074;4.758;2022-09-29T15:59:19;1.83;;;1.48;;
71484;SDS011;59300;52.074;4.758;2022-09-29T16:05:26;1.77;;;1.60;;
71484;SDS011;59300;52.074;4.758;2022-09-29T16:08:29;3.88;;;1.60;;
71484;SDS011;59300;52.074;4.758;2022-09-29T16:11:33;3.63;;;1.75;;
71484;SDS011;59300;52.074;4.758;2022-09-29T16:14:37;3.03;;;2.13;;
71484;SDS011;59300;52.074;4.758;2022-09-29T16:17:38;2.75;;;1.90;;
71484;SDS011;59300;52.074;4.758;2022-09-29T16:20:41;3.40;;;2.25;;
71484;SDS011;59300;52.074;4.758;2022-09-29T16:23:49;2.15;;;1.95;;
71484;SDS011;59300;52.074;4.758;2022-09-29T16:27:00;3.08;;;2.00;;
71484;SDS011;59300;52.074;4.758;2022-09-29T16:33:24;2.42;;;2.00;;
71484;SDS011;59300;52.074;4.758;2022-09-29T16:36:26;2.33;;;2.10;;
71484;SDS011;59300;52.074;4.758;2022-09-29T16:39:30;3.00;;;2.20;;
71484;SDS011;59300;52.074;4.758;2022-09-29T16:42:51;2.30;;;2.03;;
71484;SDS011;59300;52.074;4.758;2022-09-29T16:45:54;3.80;;;2.42;;
71484;SDS011;59300;52.074;4.758;2022-09-29T16:48:57;4.97;;;2.60;;
71484;SDS011;59300;52.074;4.758;2022-09-29T16:52:21;2.92;;;2.20;;
71484;SDS011;59300;52.074;4.758;2022-09-29T16:55:26;3.83;;;2.40;;
71484;SDS011;59300;52.074;4.758;2022-09-29T16:58:28;4.10;;;2.70;;
71484;SDS011;59300;52.074;4.758;2022-09-29T17:01:31;3.28;;;2.40;;
71484;SDS011;59300;52.074;4.758;2022-09-29T17:04:32;3.28;;;2.72;;
71484;SDS011;59300;52.074;4.758;2022-09-29T17:07:37;4.05;;;2.92;;
71484;SDS011;59300;52.074;4.758;2022-09-29T17:10:40;3.38;;;2.72;;
71484;SDS011;59300;52.074;4.758;2022-09-29T17:13:41;4.88;;;2.88;;
71484;SDS011;59300;52.074;4.758;2022-09-29T17:16:43;4.97;;;2.42;;
71484;SDS011;59300;52.074;4.758;2022-09-29T17:19:45;3.75;;;2.60;;
71484;SDS011;59300;52.074;4.758;2022-09-29T17:22:47;3.78;;;2.78;;
71484;SDS011;59300;52.074;4.758;2022-09-29T17:25:48;6.43;;;2.80;;
71484;SDS011;59300;52.074;4.758;2022-09-29T17:28:50;5.80;;;2.90;;
71484;SDS011;59300;52.074;4.758;2022-09-29T17:31:51;5.32;;;2.88;;
71484;SDS011;59300;52.074;4.758;2022-09-29T17:34:53;5.57;;;3.20;;
71484;SDS011;59300;52.074;4.758;2022-09-29T17:37:54;5.45;;;3.00;;
71484;SDS011;59300;52.074;4.758;2022-09-29T17:40:58;4.47;;;3.17;;
71484;SDS011;59300;52.074;4.758;2022-09-29T17:44:01;6.43;;;3.80;;
71484;SDS011;59300;52.074;4.758;2022-09-29T17:47:03;8.07;;;4.75;;
71484;SDS011;59300;52.074;4.758;2022-09-29T17:50:26;7.93;;;4.43;;
71484;SDS011;59300;52.074;4.758;2022-09-29T17:53:29;6.53;;;4.85;;
71484;SDS011;59300;52.074;4.758;2022-09-29T17:56:31;6.13;;;4.10;;
71484;SDS011;59300;52.074;4.758;2022-09-29T17:59:38;6.80;;;4.25;;
71484;SDS011;59300;52.074;4.758;2022-09-29T18:02:39;5.93;;;4.30;;
71484;SDS011;59300;52.074;4.758;2022-09-29T18:05:42;4.45;;;4.00;;
71484;SDS011;59300;52.074;4.758;2022-09-29T18:08:45;6.93;;;5.15;;
71484;SDS011;59300;52.074;4.758;2022-09-29T18:11:53;7.10;;;5.13;;
71484;SDS011;59300;52.074;4.758;2022-09-29T18:14:55;6.05;;;4.78;;
71484;SDS011;59300;52.074;4.758;2022-09-29T18:17:57;7.35;;;5.45;;
71484;SDS011;59300;52.074;4.758;2022-09-29T18:21:01;7.95;;;6.10;;
71484;SDS011;59300;52.074;4.758;2022-09-29T18:24:03;11.65;;;7.40;;
71484;SDS011;59300;52.074;4.758;2022-09-29T18:27:05;13.50;;;8.45;;
71484;SDS011;59300;52.074;4.758;2022-09-29T18:30:10;11.65;;;9.13;;
71484;SDS011;59300;52.074;4.758;2022-09-29T18:33:18;10.73;;;8.65;;
71484;SDS011;59300;52.074;4.758;2022-09-29T18:36:21;10.75;;;8.77;;
71484;SDS011;59300;52.074;4.758;2022-09-29T18:39:22;12.20;;;8.93;;
71484;SDS011;59300;52.074;4.758;2022-09-29T18:42:24;11.13;;;8.85;;
71484;SDS011;59300;52.074;4.758;2022-09-29T18:45:26;11.63;;;9.25;;
71484;SDS011;59300;52.074;4.758;2022-09-29T18:51:30;12.52;;;9.52;;
71484;SDS011;59300;52.074;4.758;2022-09-29T18:54:32;13.80;;;10.35;;
71484;SDS011;59300;52.074;4.758;2022-09-29T18:57:33;12.85;;;10.30;;
71484;SDS011;59300;52.074;4.758;2022-09-29T19:00:37;12.20;;;10.13;;
71484;SDS011;59300;52.074;4.758;2022-09-29T19:03:41;13.32;;;10.73;;
71484;SDS011;59300;52.074;4.758;2022-09-29T19:06:43;14.73;;;12.30;;
71484;SDS011;59300;52.074;4.758;2022-09-29T19:09:44;15.10;;;12.55;;
71484;SDS011;59300;52.074;4.758;2022-09-29T19:12:45;16.75;;;12.95;;
71484;SDS011;59300;52.074;4.758;2022-09-29T19:15:47;16.60;;;13.07;;
71484;SDS011;59300;52.074;4.758;2022-09-29T19:18:49;18.90;;;12.57;;
71484;SDS011;59300;52.074;4.758;2022-09-29T19:21:50;27.77;;;16.15;;
71484;SDS011;59300;52.074;4.758;2022-09-29T19:24:52;31.60;;;19.05;;
71484;SDS011;59300;52.074;4.758;2022-09-29T19:27:53;35.10;;;19.73;;
71484;SDS011;59300;52.074;4.758;2022-09-29T19:31:02;25.80;;;16.27;;
71484;SDS011;59300;52.074;4.758;2022-09-29T19:34:05;26.58;;;16.67;;
71484;SDS011;59300;52.074;4.758;2022-09-29T19:37:06;24.83;;;15.32;;
71484;SDS011;59300;52.074;4.758;2022-09-29T19:40:10;23.70;;;17.77;;
71484;SDS011;59300;52.074;4.758;2022-09-29T19:43:15;22.20;;;15.85;;
71484;SDS011;59300;52.074;4.758;2022-09-29T19:46:17;22.90;;;16.92;;
71484;SDS011;59300;52.074;4.758;2022-09-29T19:49:19;26.45;;;17.98;;
71484;SDS011;59300;52.074;4.758;2022-09-29T19:52:21;24.95;;;17.88;;
71484;SDS011;59300;52.074;4.758;2022-09-29T19:55:22;23.35;;;17.60;;
71484;SDS011;59300;52.074;4.758;2022-09-29T19:58:24;23.98;;;17.83;;
71484;SDS011;59300;52.074;4.758;2022-09-29T20:01:26;20.40;;;15.68;;
71484;SDS011;59300;52.074;4.758;2022-09-29T20:04:28;20.13;;;15.35;;
71484;SDS011;59300;52.074;4.758;2022-09-29T20:07:33;18.33;;;14.23;;
71484;SDS011;59300;52.074;4.758;2022-09-29T20:10:34;18.77;;;15.55;;
71484;SDS011;59300;52.074;4.758;2022-09-29T20:13:36;18.85;;;14.27;;
71484;SDS011;59300;52.074;4.758;2022-09-29T20:16:38;17.95;;;14.80;;
71484;SDS011;59300;52.074;4.758;2022-09-29T20:19:41;18.15;;;13.52;;
71484;SDS011;59300;52.074;4.758;2022-09-29T20:22:43;20.02;;;15.63;;
71484;SDS011;59300;52.074;4.758;2022-09-29T20:25:44;20.23;;;15.23;;
71484;SDS011;59300;52.074;4.758;2022-09-29T20:28:48;19.65;;;14.65;;
71484;SDS011;59300;52.074;4.758;2022-09-29T20:34:51;22.85;;;16.50;;
71484;SDS011;59300;52.074;4.758;2022-09-29T20:37:53;24.23;;;16.25;;
71484;SDS011;59300;52.074;4.758;2022-09-29T20:40:58;24.77;;;17.83;;
71484;SDS011;59300;52.074;4.758;2022-09-29T20:44:00;26.40;;;18.08;;
71484;SDS011;59300;52.074;4.758;2022-09-29T20:47:01;24.52;;;17.88;;
71484;SDS011;59300;52.074;4.758;2022-09-29T20:50:03;24.55;;;15.70;;
71484;SDS011;59300;52.074;4.758;2022-09-29T20:53:05;21.02;;;14.55;;
71484;SDS011;59300;52.074;4.758;2022-09-29T20:56:07;19.92;;;15.75;;
71484;SDS011;59300;52.074;4.758;2022-09-29T20:59:12;20.83;;;15.25;;
71484;SDS011;59300;52.074;4.758;2022-09-29T21:02:15;24.20;;;17.20;;
71484;SDS011;59300;52.074;4.758;2022-09-29T21:05:16;23.58;;;16.58;;
71484;SDS011;59300;52.074;4.758;2022-09-29T21:08:18;23.40;;;15.52;;
71484;SDS011;59300;52.074;4.758;2022-09-29T21:11:19;23.52;;;16.42;;